Time;durP1;ratioP1;P1;durP2;ratioP2;P2;SDS_P1;SDS_P2;PMS_P1;PMS_P2;Temp;Humidity;BMP_temperature;BMP_pressure;BME280_temperature;BME280_humidity;BME280_pressure;Samples;Min_cycle;Max_cycle;Signal;HPM_P1;HPM_P2
2023/01/19 00:01:33;;;;;;;6.85;6.32;;;2.30;99.90;;;;;;5015320;28;20417;-73
2023/01/19 00:03:59;;;;;;;8.27;7.07;;;2.30;99.90;;;;;;5010620;28;20029;-74
2023/01/19 00:06:24;;;;;;;6.75;6.25;;;2.40;99.90;;;;;;5016426;28;20057;-74
2023/01/19 00:08:50;;;;;;;8.30;6.72;;;2.40;99.90;;;;;;5009190;28;20030;-73
2023/01/19 00:11:18;;;;;;;8.05;6.03;;;2.40;99.90;;;;;;5015098;28;20026;-73
2023/01/19 00:13:50;;;;;;;5.75;5.25;;;2.40;99.90;;;;;;5010080;28;20037;-73
2023/01/19 00:16:17;;;;;;;8.57;5.93;;;2.50;99.90;;;;;;5015331;28;20510;-73
2023/01/19 00:18:44;;;;;;;5.72;5.22;;;2.50;99.90;;;;;;5003125;28;20026;-73
2023/01/19 00:21:10;;;;;;;5.93;5.40;;;2.50;99.90;;;;;;5012179;28;20060;-74
2023/01/19 00:23:36;;;;;;;8.05;6.50;;;2.50;99.90;;;;;;5006681;28;20030;-74
2023/01/19 00:26:02;;;;;;;6.88;5.90;;;2.50;99.90;;;;;;5013439;28;20034;-73
2023/01/19 00:28:27;;;;;;;6.93;6.00;;;2.50;99.90;;;;;;5005900;28;20027;-73
2023/01/19 00:30:53;;;;;;;6.53;5.97;;;2.50;99.90;;;;;;5014433;28;20497;-73
2023/01/19 00:33:19;;;;;;;6.70;6.10;;;2.50;99.90;;;;;;5009816;28;20022;-73
2023/01/19 00:35:49;;;;;;;8.38;6.18;;;2.50;99.90;;;;;;5014559;28;20030;-73
2023/01/19 00:38:15;;;;;;;;;;;2.50;99.90;;;;;;5009577;28;20025;-73
2023/01/19 00:40:41;;;;;;;8.20;6.25;;;2.50;99.90;;;;;;5013876;28;19913;-73
2023/01/19 00:43:06;;;;;;;6.85;6.15;;;2.40;99.90;;;;;;5011262;28;20028;-73
2023/01/19 00:45:32;;;;;;;6.68;6.07;;;2.40;99.90;;;;;;5029962;28;20034;-73
2023/01/19 00:47:58;;;;;;;7.13;6.28;;;2.40;99.90;;;;;;5012950;28;20537;-73
2023/01/19 00:50:26;;;;;;;7.78;6.90;;;2.40;99.90;;;;;;5015040;28;20113;-73
2023/01/19 00:52:53;;;;;;;8.40;7.20;;;2.40;99.90;;;;;;5012953;28;20030;-73
2023/01/19 00:55:19;;;;;;;7.13;6.40;;;2.40;99.90;;;;;;5015975;28;20026;-73
2023/01/19 00:57:45;;;;;;;7.93;6.90;;;2.40;99.90;;;;;;5008190;28;20022;-73
2023/01/19 01:00:13;;;;;;;7.95;6.80;;;2.40;99.90;;;;;;5014896;28;20030;-73
2023/01/19 01:02:40;;;;;;;7.68;6.88;;;2.40;99.90;;;;;;5003720;28;20565;-73
2023/01/19 01:05:07;;;;;;;11.20;6.82;;;2.40;99.90;;;;;;5015363;28;20046;-73
2023/01/19 01:07:39;;;;;;;7.05;6.43;;;2.50;99.90;;;;;;5021801;28;20038;-74
2023/01/19 01:10:11;;;;;;;7.78;5.80;;;2.50;99.90;;;;;;5016247;28;20025;-73
2023/01/19 01:12:37;;;;;;;6.72;5.82;;;2.50;99.90;;;;;;5009983;28;20038;-74
2023/01/19 01:15:05;;;;;;;7.28;5.70;;;2.60;99.90;;;;;;5017491;28;20041;-73
2023/01/19 01:17:30;;;;;;;6.13;5.50;;;2.60;99.90;;;;;;5010039;28;20018;-73
2023/01/19 01:19:56;;;;;;;7.03;5.50;;;2.60;99.90;;;;;;5018978;28;20447;-73
2023/01/19 01:22:22;;;;;;;6.35;5.50;;;2.60;99.90;;;;;;5016872;28;20078;-73
2023/01/19 01:24:47;;;;;;;6.63;5.97;;;2.60;99.90;;;;;;5018923;28;20037;-72
2023/01/19 01:27:13;;;;;;;6.63;6.00;;;2.50;99.90;;;;;;5012549;28;20034;-72
2023/01/19 01:29:40;;;;;;;7.53;4.82;;;2.40;99.90;;;;;;5014293;28;20057;-72
2023/01/19 01:32:07;;;;;;;5.93;5.32;;;2.30;99.90;;;;;;5012331;28;20121;-73
2023/01/19 01:34:33;;;;;;;6.80;5.50;;;2.30;99.90;;;;;;5018673;28;20030;-73
2023/01/19 01:36:59;;;;;;;7.70;5.80;;;2.30;99.90;;;;;;5014785;28;20105;-73
2023/01/19 01:39:24;;;;;;;5.75;4.78;;;2.20;99.90;;;;;;5015393;28;20057;-73
2023/01/19 01:41:50;;;;;;;6.20;4.93;;;2.20;99.90;;;;;;5015490;28;20499;-73
2023/01/19 01:45:01;;;;;;;5.70;5.20;;;2.30;99.90;;;;;;5017227;28;20030;-73
2023/01/19 01:47:33;;;;;;;;;;;2.30;99.90;;;;;;5011439;28;20092;-73
2023/01/19 01:50:22;;;;;;;6.30;4.93;;;2.40;99.90;;;;;;5018288;28;19916;-73
2023/01/19 01:53:09;;;;;;;5.32;4.93;;;2.40;99.90;;;;;;5015443;28;20045;-73
2023/01/19 01:55:43;;;;;;;6.25;5.20;;;2.50;99.90;;;;;;5015305;28;20034;-73
2023/01/19 01:58:10;;;;;;;5.45;5.05;;;2.50;99.90;;;;;;5008797;28;20026;-73
2023/01/19 02:03:23;;;;;;;7.65;5.75;;;2.60;99.90;;;;;;5010084;28;20120;-73
2023/01/19 02:05:49;;;;;;;5.20;4.80;;;2.60;99.90;;;;;;5019669;28;20405;-73
2023/01/19 02:14:24;;;;;;;5.10;4.70;;;2.70;99.90;;;;;;5013760;28;20107;-73
2023/01/19 02:16:50;;;;;;;5.30;4.90;;;2.80;99.90;;;;;;5013746;28;20026;-73
2023/01/19 02:19:23;;;;;;;6.20;4.82;;;2.80;99.90;;;;;;5021063;28;20038;-73
2023/01/19 02:22:06;;;;;;;5.40;4.93;;;2.80;99.90;;;;;;5014037;28;20025;-73
2023/01/19 02:24:32;;;;;;;5.82;5.18;;;2.80;99.90;;;;;;5008368;28;20034;-73
2023/01/19 02:26:58;;;;;;;4.88;4.47;;;2.80;99.90;;;;;;5010426;28;20049;-72
2023/01/19 02:29:26;;;;;;;7.68;5.00;;;2.80;99.90;;;;;;5012470;28;20038;-73
2023/01/19 02:31:54;;;;;;;4.38;4.07;;;2.90;99.90;;;;;;5013118;28;20033;-73
2023/01/19 02:34:21;;;;;;;5.70;5.20;;;2.80;99.90;;;;;;5012883;28;20030;-73
2023/01/19 02:36:57;;;;;;;6.05;5.13;;;2.80;99.90;;;;;;5014105;28;20072;-73
2023/01/19 02:39:32;;;;;;;4.60;4.30;;;2.80;99.90;;;;;;5013121;28;20029;-73
2023/01/19 02:42:12;;;;;;;4.25;3.95;;;2.90;99.90;;;;;;5012570;28;20030;-73
2023/01/19 02:44:40;;;;;;;4.82;4.43;;;2.80;99.90;;;;;;5014630;28;20026;-73
2023/01/19 02:47:06;;;;;;;5.20;4.70;;;2.90;99.90;;;;;;5014279;28;20490;-73
2023/01/19 02:49:32;;;;;;;7.75;4.75;;;2.90;99.90;;;;;;5016539;28;20038;-74
2023/01/19 02:51:59;;;;;;;4.88;4.47;;;2.90;99.90;;;;;;5015480;28;20034;-72
2023/01/19 02:54:45;;;;;;;5.40;4.68;;;2.90;99.90;;;;;;5016689;28;20030;-73
2023/01/19 02:57:38;;;;;;;4.65;4.28;;;2.80;99.90;;;;;;5014574;28;20160;-73
2023/01/19 03:00:18;;;;;;;5.68;4.80;;;2.80;99.90;;;;;;5026436;28;20505;-73
2023/01/19 03:03:12;;;;;;;5.30;4.90;;;2.80;99.90;;;;;;5007163;28;20029;-73
2023/01/19 03:06:14;;;;;;;4.60;4.30;;;2.80;99.90;;;;;;5017023;28;20253;-73
2023/01/19 03:08:54;;;;;;;7.53;4.13;;;2.80;99.90;;;;;;5009869;28;20080;-73
2023/01/19 03:11:23;;;;;;;6.30;4.93;;;2.80;99.90;;;;;;5017248;28;20022;-73
2023/01/19 03:13:56;;;;;;;5.38;4.43;;;2.80;99.90;;;;;;5011334;28;20026;-73
2023/01/19 03:16:35;;;;;;;5.10;4.40;;;2.80;99.90;;;;;;5015931;28;20040;-73
2023/01/19 03:19:19;;;;;;;4.80;4.40;;;2.80;99.90;;;;;;5007357;28;20023;-73
2023/01/19 03:21:49;;;;;;;7.03;4.35;;;2.80;99.90;;;;;;5013140;28;20029;-73
2023/01/19 03:24:17;;;;;;;4.63;4.25;;;2.80;99.90;;;;;;5007371;28;20038;-73
2023/01/19 03:26:48;;;;;;;4.65;4.22;;;2.80;99.90;;;;;;5012739;28;20692;-73
2023/01/19 03:29:17;;;;;;;4.53;4.13;;;2.80;99.90;;;;;;5010622;28;20036;-73
2023/01/19 03:31:47;;;;;;;4.30;4.00;;;2.80;99.90;;;;;;5013819;28;20034;-73
2023/01/19 03:34:15;;;;;;;4.63;4.32;;;2.80;99.90;;;;;;5011489;28;20478;-73
2023/01/19 03:36:53;;;;;;;4.10;3.80;;;2.80;99.90;;;;;;5012952;28;20094;-72
2023/01/19 03:39:25;;;;;;;4.55;4.25;;;2.80;99.90;;;;;;5012330;28;20030;-73
2023/01/19 03:42:01;;;;;;;4.63;4.25;;;2.80;99.90;;;;;;5014062;28;20031;-73
2023/01/19 03:44:30;;;;;;;4.53;4.20;;;2.80;99.90;;;;;;5011798;28;20026;-72
2023/01/19 03:46:58;;;;;;;4.50;4.20;;;2.80;99.90;;;;;;5012484;28;20030;-73
2023/01/19 03:49:24;;;;;;;4.55;4.25;;;2.80;99.90;;;;;;5015470;28;20470;-72
2023/01/19 03:51:54;;;;;;;4.63;4.32;;;2.80;99.90;;;;;;5014770;28;20054;-73
2023/01/19 03:54:19;;;;;;;4.47;4.18;;;2.80;99.90;;;;;;5016552;28;20108;-72
2023/01/19 03:56:45;;;;;;;4.28;3.90;;;2.80;99.90;;;;;;5015181;28;20049;-73
2023/01/19 03:59:10;;;;;;;4.28;3.97;;;2.80;99.90;;;;;;5009014;28;20129;-73
2023/01/19 04:01:36;;;;;;;4.38;3.97;;;2.80;99.90;;;;;;5014794;28;20064;-72
2023/01/19 04:04:02;;;;;;;4.78;4.38;;;2.80;99.90;;;;;;5009034;28;20026;-73
2023/01/19 04:06:28;;;;;;;4.50;4.10;;;2.80;99.90;;;;;;5015011;28;20037;-73
2023/01/19 04:08:53;;;;;;;4.28;3.97;;;2.80;99.90;;;;;;5009749;28;20036;-72
2023/01/19 04:11:19;;;;;;;4.95;4.05;;;2.80;99.90;;;;;;5013709;28;20107;-73
2023/01/19 04:13:45;;;;;;;4.63;4.32;;;2.80;99.90;;;;;;5011723;28;20022;-72
2023/01/19 04:16:11;;;;;;;4.57;4.28;;;2.80;99.90;;;;;;5015488;28;20104;-72
2023/01/19 04:18:36;;;;;;;4.95;4.57;;;2.80;99.90;;;;;;5005206;28;20033;-73
2023/01/19 04:21:04;;;;;;;5.80;4.85;;;2.80;99.90;;;;;;5012659;28;20556;-72
2023/01/19 04:23:30;;;;;;;4.38;4.07;;;2.90;99.90;;;;;;5010408;28;20034;-73
2023/01/19 04:26:01;;;;;;;4.53;4.10;;;2.90;99.90;;;;;;5012334;28;20121;-73
2023/01/19 04:28:27;;;;;;;4.90;4.50;;;2.90;99.90;;;;;;5008849;28;20057;-73
2023/01/19 04:30:53;;;;;;;4.57;4.28;;;2.80;99.90;;;;;;5013976;28;20498;-72
2023/01/19 04:33:20;;;;;;;4.70;4.30;;;2.80;99.90;;;;;;5008604;28;20080;-72
2023/01/19 04:35:47;;;;;;;4.60;4.30;;;2.80;99.90;;;;;;5014135;28;20022;-73
2023/01/19 04:38:13;;;;;;;4.65;4.25;;;2.90;99.90;;;;;;5013764;28;20022;-72
2023/01/19 04:40:39;;;;;;;4.07;3.78;;;2.90;99.90;;;;;;5014535;28;20128;-73
2023/01/19 04:43:05;;;;;;;4.47;4.18;;;2.90;99.90;;;;;;5012160;28;20026;-73
2023/01/19 04:45:31;;;;;;;4.50;4.20;;;2.90;99.90;;;;;;5014397;28;20159;-72
2023/01/19 04:47:56;;;;;;;4.85;4.45;;;2.90;99.90;;;;;;5012242;28;20030;-72
2023/01/19 04:50:22;;;;;;;4.40;4.00;;;2.90;99.90;;;;;;5017943;28;20091;-72
2023/01/19 04:52:48;;;;;;;4.65;4.28;;;2.90;99.90;;;;;;5018135;28;20379;-73
2023/01/19 04:55:14;;;;;;;4.90;4.47;;;2.90;99.90;;;;;;5020872;28;20587;-73
2023/01/19 04:57:40;;;;;;;4.43;4.10;;;2.90;99.90;;;;;;5013335;28;20038;-73
2023/01/19 05:00:06;;;;;;;5.00;4.70;;;2.90;99.90;;;;;;5018371;28;20064;-73
2023/01/19 05:02:32;;;;;;;4.88;4.47;;;2.90;99.90;;;;;;5012417;28;20065;-73
2023/01/19 05:04:58;;;;;;;4.93;4.60;;;2.90;99.90;;;;;;5019446;28;20026;-73
2023/01/19 05:07:24;;;;;;;4.43;4.13;;;2.90;99.90;;;;;;5014399;28;20169;-73
2023/01/19 05:09:50;;;;;;;4.78;4.40;;;2.90;99.90;;;;;;5017031;28;20072;-73
2023/01/19 05:12:16;;;;;;;8.13;4.80;;;2.90;99.90;;;;;;5012125;28;20041;-73
2023/01/19 05:14:42;;;;;;;4.60;4.30;;;2.90;99.90;;;;;;5033569;28;20093;-73
2023/01/19 05:17:08;;;;;;;4.78;4.38;;;2.90;99.90;;;;;;5013188;28;20493;-73
2023/01/19 05:19:34;;;;;;;5.10;4.50;;;2.90;99.90;;;;;;5009743;28;20127;-73
2023/01/19 05:22:02;;;;;;;4.30;4.00;;;2.80;99.90;;;;;;5011106;28;20030;-73
2023/01/19 05:24:28;;;;;;;5.20;4.50;;;2.80;99.90;;;;;;5016664;28;20022;-72
2023/01/19 05:26:54;;;;;;;5.38;4.88;;;2.80;99.90;;;;;;5016119;28;20049;-74
2023/01/19 05:29:20;;;;;;;4.88;4.57;;;2.80;99.90;;;;;;5013396;28;20022;-74
2023/01/19 05:31:45;;;;;;;4.85;4.45;;;2.80;99.90;;;;;;5016008;28;20486;-74
2023/01/19 05:34:13;;;;;;;5.07;4.72;;;2.70;99.90;;;;;;5013544;28;20026;-73
2023/01/19 05:36:39;;;;;;;5.05;4.50;;;2.70;99.90;;;;;;5008521;28;20515;-73
2023/01/19 05:39:05;;;;;;;5.28;4.88;;;2.70;99.90;;;;;;5014928;28;20084;-73
2023/01/19 05:41:31;;;;;;;5.22;4.75;;;2.70;99.90;;;;;;5017790;28;20117;-73
2023/01/19 05:43:56;;;;;;;5.10;4.70;;;2.70;99.90;;;;;;5015984;28;20029;-73
2023/01/19 05:46:23;;;;;;;5.20;4.70;;;2.70;99.90;;;;;;5016353;28;20034;-74
2023/01/19 05:48:49;;;;;;;4.90;4.60;;;2.80;99.90;;;;;;5017582;28;20030;-73
2023/01/19 05:51:14;;;;;;;7.60;4.80;;;2.70;99.90;;;;;;5017594;28;20132;-73
2023/01/19 05:53:40;;;;;;;5.95;4.97;;;2.70;99.90;;;;;;5019544;28;20126;-73
2023/01/19 05:56:08;;;;;;;4.70;4.35;;;2.80;99.90;;;;;;5009006;28;20026;-74
2023/01/19 05:58:34;;;;;;;5.57;5.15;;;2.70;99.90;;;;;;5020044;28;20080;-74
2023/01/19 06:01:05;;;;;;;5.43;5.13;;;2.70;99.90;;;;;;5018148;28;20049;-73
2023/01/19 06:03:34;;;;;;;5.22;4.82;;;2.70;99.90;;;;;;5010615;28;20461;-73
2023/01/19 06:06:00;;;;;;;5.78;5.15;;;2.70;99.90;;;;;;5018450;28;20030;-74
2023/01/19 06:08:26;;;;;;;5.00;4.60;;;2.70;99.90;;;;;;5011588;28;20034;-73
2023/01/19 06:10:52;;;;;;;5.40;5.00;;;2.70;99.90;;;;;;5019754;28;20021;-73
2023/01/19 06:13:17;;;;;;;4.80;4.50;;;2.70;99.90;;;;;;5012564;28;20482;-72
2023/01/19 06:15:43;;;;;;;5.40;4.90;;;2.70;99.90;;;;;;5018442;28;20048;-73
2023/01/19 06:18:10;;;;;;;4.85;4.55;;;2.70;99.90;;;;;;5012244;28;20029;-74
2023/01/19 06:20:36;;;;;;;5.40;5.03;;;2.70;99.90;;;;;;5012194;28;20057;-73
2023/01/19 06:23:02;;;;;;;4.90;4.60;;;2.70;99.90;;;;;;5011841;28;20037;-74
2023/01/19 06:25:28;;;;;;;5.32;4.93;;;2.70;99.90;;;;;;5012737;28;20032;-73
2023/01/19 06:27:54;;;;;;;5.03;4.65;;;2.70;99.90;;;;;;5013618;28;20030;-73
2023/01/19 06:30:20;;;;;;;5.43;4.75;;;2.70;99.90;;;;;;5013645;28;20029;-74
2023/01/19 06:32:46;;;;;;;5.47;4.70;;;2.70;99.90;;;;;;5009403;28;20100;-74
2023/01/19 06:35:12;;;;;;;4.93;4.53;;;2.70;99.90;;;;;;5015179;28;20138;-74
2023/01/19 06:37:38;;;;;;;5.53;5.13;;;2.60;99.90;;;;;;5013570;28;20018;-74
2023/01/19 06:40:05;;;;;;;5.40;5.00;;;2.60;99.90;;;;;;5016247;28;20057;-74
2023/01/19 06:42:31;;;;;;;4.90;4.50;;;2.60;99.90;;;;;;5014637;28;20022;-74
2023/01/19 06:44:56;;;;;;;5.15;4.75;;;2.60;99.90;;;;;;5017211;28;20037;-73
2023/01/19 06:47:22;;;;;;;4.55;4.28;;;2.60;99.90;;;;;;5015708;28;20018;-73
2023/01/19 06:49:48;;;;;;;5.45;5.03;;;2.70;99.90;;;;;;5017416;28;20064;-74
2023/01/19 06:52:16;;;;;;;5.60;5.20;;;2.70;99.90;;;;;;5013118;28;20038;-73
2023/01/19 06:54:42;;;;;;;5.35;4.95;;;2.70;99.90;;;;;;5018742;28;20072;-73
2023/01/19 06:57:09;;;;;;;4.75;4.45;;;2.70;99.90;;;;;;5016015;28;20056;-74
2023/01/19 06:59:35;;;;;;;4.88;4.57;;;2.70;99.90;;;;;;5012136;28;20105;-74
2023/01/19 07:02:01;;;;;;;4.55;4.20;;;2.80;99.90;;;;;;5013034;28;20125;-74
2023/01/19 07:04:26;;;;;;;4.50;4.20;;;2.80;99.90;;;;;;5011894;28;20026;-74
2023/01/19 07:06:52;;;;;;;5.00;4.60;;;2.70;99.90;;;;;;5013661;28;20037;-74
2023/01/19 07:09:19;;;;;;;4.18;3.97;;;2.70;99.90;;;;;;5013214;28;20052;-72
2023/01/19 07:11:45;;;;;;;4.70;4.40;;;2.70;99.90;;;;;;5011468;28;20062;-74
2023/01/19 07:14:11;;;;;;;4.65;4.35;;;2.80;99.90;;;;;;5011262;28;20390;-74
2023/01/19 07:16:37;;;;;;;4.90;4.60;;;2.80;99.90;;;;;;5015308;28;20102;-74
2023/01/19 07:19:03;;;;;;;4.57;4.20;;;2.70;99.90;;;;;;5003818;28;20031;-74
2023/01/19 07:21:29;;;;;;;5.30;4.90;;;2.70;99.90;;;;;;5013656;28;20117;-73
2023/01/19 07:23:54;;;;;;;4.90;4.55;;;2.70;99.90;;;;;;5009497;28;20062;-73
2023/01/19 07:26:23;;;;;;;5.80;4.78;;;2.70;99.90;;;;;;5012160;28;20057;-72
2023/01/19 07:28:50;;;;;;;6.10;4.90;;;2.70;99.90;;;;;;5008691;28;20022;-73
2023/01/19 07:31:16;;;;;;;5.00;4.70;;;2.70;99.90;;;;;;5016071;28;20029;-73
2023/01/19 07:33:42;;;;;;;5.28;4.80;;;2.70;99.90;;;;;;5014045;28;20402;-73
2023/01/19 07:36:09;;;;;;;5.05;4.70;;;2.60;99.90;;;;;;5016438;28;20021;-73
2023/01/19 07:38:34;;;;;;;5.80;5.30;;;2.60;99.90;;;;;;5010109;28;20033;-72
2023/01/19 07:41:05;;;;;;;6.05;5.55;;;2.70;99.90;;;;;;5017371;28;20029;-73
2023/01/19 07:43:32;;;;;;;5.47;5.07;;;2.60;99.90;;;;;;5011899;28;20415;-73
2023/01/19 07:46:00;;;;;;;5.90;5.50;;;2.70;99.90;;;;;;5016049;28;20030;-74
2023/01/19 07:48:26;;;;;;;5.50;5.10;;;2.70;99.90;;;;;;5009992;28;20664;-72
2023/01/19 07:50:52;;;;;;;8.85;7.15;;;2.70;99.90;;;;;;5014887;28;20636;-73
2023/01/19 07:53:18;;;;;;;5.10;4.72;;;2.70;99.90;;;;;;5013072;28;20079;-73
2023/01/19 07:55:44;;;;;;;9.20;5.40;;;2.80;99.90;;;;;;5016493;28;20457;-72
2023/01/19 07:58:10;;;;;;;6.00;5.45;;;2.90;99.90;;;;;;5013262;28;20053;-73
2023/01/19 08:00:37;;;;;;;5.63;5.13;;;2.90;99.90;;;;;;5014762;28;20034;-73
2023/01/19 08:03:04;;;;;;;6.20;5.60;;;3.00;99.90;;;;;;5011067;28;20037;-72
2023/01/19 08:05:31;;;;;;;6.53;5.68;;;3.00;99.90;;;;;;5015178;28;20092;-72
2023/01/19 08:07:58;;;;;;;6.45;5.88;;;3.00;99.90;;;;;;5012194;28;20037;-73
2023/01/19 08:10:25;;;;;;;6.10;5.60;;;3.00;99.90;;;;;;5015516;28;20025;-73
2023/01/19 08:12:55;;;;;;;6.28;5.78;;;3.00;99.90;;;;;;5008475;28;20105;-73
2023/01/19 08:15:23;;;;;;;5.70;5.30;;;3.00;99.90;;;;;;5015332;28;20029;-73
2023/01/19 08:18:04;;;;;;;4.60;4.30;;;3.10;99.90;;;;;;5009972;28;20433;-72
2023/01/19 08:20:31;;;;;;;6.13;5.25;;;3.10;99.90;;;;;;5013320;28;20016;-73
2023/01/19 08:23:01;;;;;;;5.50;5.00;;;3.10;99.90;;;;;;5011824;28;20084;-73
2023/01/19 08:25:43;;;;;;;5.90;5.40;;;3.00;99.90;;;;;;5015686;28;20026;-72
2023/01/19 08:28:10;;;;;;;5.40;5.00;;;3.00;99.90;;;;;;5007067;28;20627;-73
2023/01/19 08:30:37;;;;;;;4.80;4.47;;;3.00;99.90;;;;;;5013970;28;20061;-72
2023/01/19 08:33:06;;;;;;;9.15;4.90;;;3.00;99.90;;;;;;5012265;28;20041;-72
2023/01/19 08:35:33;;;;;;;4.70;4.40;;;3.00;99.90;;;;;;5015231;28;20026;-72
2023/01/19 08:38:02;;;;;;;4.80;4.40;;;3.00;99.90;;;;;;5010690;28;20509;-72
2023/01/19 08:40:33;;;;;;;4.78;4.38;;;2.90;99.90;;;;;;5013584;28;20018;-73
2023/01/19 08:43:04;;;;;;;5.20;4.70;;;3.00;99.90;;;;;;5011871;28;20109;-73
2023/01/19 08:45:30;;;;;;;6.35;5.05;;;3.10;99.90;;;;;;5013811;28;20054;-73
2023/01/19 08:47:57;;;;;;;5.07;4.68;;;3.20;99.90;;;;;;5013186;28;20049;-72
2023/01/19 08:50:24;;;;;;;5.47;5.07;;;3.30;99.90;;;;;;5015225;28;20034;-72
2023/01/19 08:52:50;;;;;;;5.03;4.65;;;3.40;99.90;;;;;;5013281;28;20038;-73
2023/01/19 08:55:16;;;;;;;5.07;4.60;;;3.40;99.90;;;;;;5013761;28;20041;-73
2023/01/19 08:57:42;;;;;;;4.75;4.45;;;3.50;99.90;;;;;;5008829;28;20573;-73
2023/01/19 09:00:09;;;;;;;5.10;4.70;;;3.50;99.90;;;;;;5014819;28;20567;-72
2023/01/19 09:02:36;;;;;;;4.75;4.45;;;3.50;99.90;;;;;;5010011;28;20029;-73
2023/01/19 09:05:03;;;;;;;7.45;4.18;;;3.50;99.90;;;;;;5012842;28;20033;-73
2023/01/19 09:07:29;;;;;;;4.05;3.70;;;3.60;99.90;;;;;;5006315;28;20030;-72
2023/01/19 09:09:55;;;;;;;4.60;4.20;;;3.60;99.90;;;;;;5013967;28;20059;-73
2023/01/19 09:12:21;;;;;;;4.22;3.92;;;3.60;99.90;;;;;;5008407;28;20113;-73
2023/01/19 09:14:47;;;;;;;5.03;4.53;;;3.60;99.90;;;;;;5021774;28;20026;-73
2023/01/19 09:17:13;;;;;;;5.60;4.97;;;3.60;99.90;;;;;;5009603;28;20498;-73
2023/01/19 09:19:40;;;;;;;4.80;4.22;;;3.60;99.90;;;;;;5009183;28;20064;-73
2023/01/19 09:22:05;;;;;;;4.57;4.22;;;3.70;99.90;;;;;;5010685;28;20026;-73
2023/01/19 09:24:32;;;;;;;5.60;5.03;;;3.80;99.90;;;;;;5009689;28;20037;-73
2023/01/19 09:26:57;;;;;;;4.85;4.45;;;3.90;99.90;;;;;;5009661;28;20052;-72
2023/01/19 09:29:23;;;;;;;7.50;4.60;;;4.10;99.90;;;;;;5014062;28;20445;-72
2023/01/19 09:31:49;;;;;;;5.78;4.82;;;4.20;99.90;;;;;;5011469;28;20057;-73
2023/01/19 09:34:14;;;;;;;4.93;4.53;;;4.40;99.90;;;;;;5010203;28;20509;-73
2023/01/19 09:36:40;;;;;;;8.73;4.30;;;4.40;99.90;;;;;;5015851;28;20029;-72
2023/01/19 09:39:06;;;;;;;7.18;4.95;;;4.50;99.90;;;;;;5015264;28;20041;-72
2023/01/19 09:41:35;;;;;;;5.75;4.75;;;4.50;99.90;;;;;;5017859;28;20022;-72
2023/01/19 09:44:00;;;;;;;6.63;4.53;;;4.50;99.90;;;;;;5015777;28;20037;-72
2023/01/19 09:46:35;;;;;;;4.43;4.03;;;4.50;99.90;;;;;;5017858;28;20034;-73
2023/01/19 09:49:12;;;;;;;63.92;23.48;;;4.50;99.90;;;;;;5017829;28;20036;-73
2023/01/19 09:51:42;;;;;;;6.05;4.03;;;4.60;99.90;;;;;;5017632;28;20080;-73
2023/01/19 09:54:12;;;;;;;6.43;5.75;;;4.60;99.90;;;;;;5019574;28;20034;-73
2023/01/19 09:56:38;;;;;;;4.28;3.85;;;4.80;99.90;;;;;;5017245;28;20022;-73
2023/01/19 09:59:24;;;;;;;5.05;4.13;;;4.90;99.90;;;;;;5011046;28;20084;-73
2023/01/19 10:01:58;;;;;;;3.75;3.45;;;5.00;99.90;;;;;;5015131;28;20044;-73
2023/01/19 10:04:33;;;;;;;6.22;4.10;;;5.10;99.90;;;;;;5015895;28;20101;-73
2023/01/19 10:07:30;;;;;;;4.30;3.95;;;5.20;99.90;;;;;;5016741;28;20041;-72
2023/01/19 10:10:16;;;;;;;9.02;4.13;;;5.20;99.90;;;;;;5016910;28;20028;-73
2023/01/19 10:13:20;;;;;;;4.03;3.75;;;5.30;99.90;;;;;;5011744;28;20117;-72
2023/01/19 10:16:15;;;;;;;4.70;3.65;;;5.30;99.90;;;;;;5019840;28;20495;-75
2023/01/19 10:18:47;;;;;;;4.40;4.10;;;5.50;99.90;;;;;;5016006;28;20050;-76
2023/01/19 10:21:18;;;;;;;4.45;3.95;;;5.40;99.90;;;;;;5017693;28;20018;-76
2023/01/19 10:23:55;;;;;;;5.53;3.70;;;5.50;99.90;;;;;;5013908;28;20037;-74
2023/01/19 10:26:32;;;;;;;4.03;3.38;;;5.60;99.90;;;;;;5015787;28;20368;-74
2023/01/19 10:29:05;;;;;;;5.65;3.75;;;5.60;99.90;;;;;;5017230;28;20080;-74
2023/01/19 10:31:34;;;;;;;3.55;3.30;;;5.70;99.90;;;;;;5015432;28;20017;-75
2023/01/19 10:34:00;;;;;;;3.90;3.58;;;5.70;99.90;;;;;;5017998;28;20149;-75
2023/01/19 10:36:35;;;;;;;3.50;3.28;;;5.70;99.90;;;;;;5015324;28;20038;-76
2023/01/19 10:39:06;;;;;;;4.38;3.58;;;5.80;99.90;;;;;;5012919;28;20390;-76
2023/01/19 10:41:43;;;;;;;3.83;3.20;;;5.80;99.90;;;;;;5016936;28;20073;-75
2023/01/19 10:44:10;;;;;;;3.17;2.97;;;6.00;99.90;;;;;;5006493;28;20105;-75
2023/01/19 10:46:47;;;;;;;3.53;3.22;;;6.10;99.90;;;;;;5013632;28;20057;-74
2023/01/19 10:49:26;;;;;;;16.55;11.20;;;6.10;99.90;;;;;;5024128;28;20053;-76
2023/01/19 10:51:53;;;;;;;3.58;3.28;;;6.10;99.90;;;;;;5015938;28;20053;-76
2023/01/19 10:54:20;;;;;;;3.88;3.45;;;6.10;99.90;;;;;;5015958;28;20033;-75
2023/01/19 10:56:53;;;;;;;4.10;3.72;;;6.20;99.90;;;;;;5015593;28;20032;-74
2023/01/19 10:59:48;;;;;;;3.70;3.35;;;6.20;99.90;;;;;;5016619;28;20041;-75
2023/01/19 11:02:25;;;;;;;5.78;4.00;;;6.10;99.90;;;;;;5009955;28;20014;-76
2023/01/19 11:04:53;;;;;;;4.32;3.67;;;6.20;99.90;;;;;;5013193;28;20077;-75
2023/01/19 11:07:25;;;;;;;3.80;3.50;;;6.20;99.90;;;;;;5013714;28;20026;-75
2023/01/19 11:10:19;;;;;;;3.55;3.30;;;6.30;99.90;;;;;;5013468;28;20464;-77
2023/01/19 11:13:00;;;;;;;16.55;4.47;;;6.40;99.90;;;;;;5006955;28;20061;-76
2023/01/19 11:15:35;;;;;;;7.22;3.75;;;6.50;99.90;;;;;;5016695;28;20030;-73
2023/01/19 11:18:04;;;;;;;5.30;3.50;;;6.70;99.90;;;;;;5014010;28;20029;-73
2023/01/19 11:20:48;;;;;;;4.22;3.30;;;6.80;99.90;;;;;;5010780;28;20109;-74
2023/01/19 11:23:41;;;;;;;4.95;3.30;;;6.90;99.90;;;;;;5007765;28;20069;-72
2023/01/19 11:26:34;;;;;;;4.65;3.40;;;6.80;99.90;;;;;;5017402;28;20053;-74
2023/01/19 11:29:01;;;;;;;7.28;3.33;;;6.80;99.90;;;;;;5008415;28;20371;-73
2023/01/19 11:31:27;;;;;;;4.95;3.53;;;6.80;99.90;;;;;;5015268;28;20037;-73
2023/01/19 11:33:56;;;;;;;3.53;3.22;;;6.80;99.90;;;;;;5008518;28;20026;-73
2023/01/19 11:36:27;;;;;;;6.80;3.40;;;6.80;99.90;;;;;;5015712;28;20018;-73
2023/01/19 11:38:59;;;;;;;4.47;3.30;;;6.70;99.90;;;;;;5013685;28;20105;-73
2023/01/19 11:41:34;;;;;;;5.65;3.30;;;6.80;99.90;;;;;;5005872;28;20101;-73
2023/01/19 11:44:20;;;;;;;4.28;3.47;;;6.80;99.90;;;;;;5005901;28;20033;-74
2023/01/19 11:47:15;;;;;;;17.33;14.32;;;6.90;99.90;;;;;;5015067;28;20029;-73
2023/01/19 11:49:58;;;;;;;7.60;3.65;;;6.90;99.90;;;;;;5008633;28;20056;-74
2023/01/19 11:52:38;;;;;;;9.80;4.13;;;7.10;99.90;;;;;;5013598;28;20111;-74
2023/01/19 11:55:27;;;;;;;3.80;3.40;;;7.20;99.90;;;;;;5015408;28;20405;-74
2023/01/19 11:57:53;;;;;;;4.72;3.83;;;7.30;99.90;;;;;;5011900;28;20046;-74
2023/01/19 12:00:32;;;;;;;8.70;3.83;;;7.30;99.90;;;;;;5017073;28;20219;-74
2023/01/19 12:03:13;;;;;;;7.15;3.45;;;7.20;99.90;;;;;;5007019;28;20030;-74
2023/01/19 12:05:42;;;;;;;4.35;3.55;;;7.20;99.90;;;;;;5016078;28;20370;-74
2023/01/19 12:08:14;;;;;;;8.17;3.13;;;7.20;99.90;;;;;;5009716;28;20029;-74
2023/01/19 12:10:43;;;;;;;3.80;3.40;;;7.30;99.90;;;;;;5011778;28;20057;-73
2023/01/19 12:13:23;;;;;;;5.55;3.50;;;7.30;99.90;;;;;;5009665;28;20035;-74
2023/01/19 12:16:04;;;;;;;5.40;3.30;;;7.30;99.90;;;;;;5014076;28;20018;-74
2023/01/19 12:18:37;;;;;;;9.95;4.35;;;7.30;99.90;;;;;;5009928;28;20113;-74
2023/01/19 12:21:03;;;;;;;4.20;3.63;;;7.30;99.90;;;;;;5017223;28;20022;-74
2023/01/19 12:23:43;;;;;;;6.55;3.42;;;7.30;99.90;;;;;;5012240;28;20080;-74
2023/01/19 12:26:15;;;;;;;7.82;4.00;;;7.30;99.90;;;;;;5015370;28;20037;-74
2023/01/19 12:28:49;;;;;;;5.53;3.60;;;7.30;99.90;;;;;;5013987;28;20049;-74
2023/01/19 12:31:18;;;;;;;5.82;3.67;;;7.30;99.90;;;;;;5025040;28;20018;-73
2023/01/19 12:33:44;;;;;;;6.90;3.53;;;7.30;99.90;;;;;;5020899;28;20399;-74
2023/01/19 12:36:34;;;;;;;6.35;4.22;;;7.40;99.90;;;;;;5015386;28;20044;-74
2023/01/19 12:39:18;;;;;;;6.22;3.75;;;7.30;99.90;;;;;;5011435;28;20056;-74
2023/01/19 12:41:46;;;;;;;4.38;3.45;;;7.30;99.90;;;;;;5011909;28;20030;-74
2023/01/19 12:44:15;;;;;;;7.90;3.65;;;7.20;99.90;;;;;;5014866;28;20486;-74
2023/01/19 12:46:53;;;;;;;4.97;3.05;;;7.10;99.90;;;;;;5012432;28;20022;-74
2023/01/19 12:49:26;;;;;;;4.85;3.10;;;7.10;99.90;;;;;;5027592;28;20026;-74
2023/01/19 12:52:39;;;;;;;3.55;3.20;;;7.00;99.90;;;;;;5014133;28;20133;-74
2023/01/19 12:55:14;;;;;;;7.30;3.47;;;7.00;99.90;;;;;;5014387;28;20052;-74
2023/01/19 12:58:14;;;;;;;9.25;3.55;;;7.00;99.90;;;;;;5007131;28;20041;-75
2023/01/19 13:00:44;;;;;;;5.32;3.55;;;7.00;99.90;;;;;;5005936;28;20033;-76
2023/01/19 13:03:16;;;;;;;;;;;7.00;99.90;;;;;;5008538;28;20030;-75
2023/01/19 13:05:42;;;;;;;4.93;3.53;;;7.00;99.90;;;;;;5006952;28;19913;-77
2023/01/19 13:08:07;;;;;;;4.53;3.30;;;7.00;99.90;;;;;;5008117;28;20037;-76
2023/01/19 13:10:58;;;;;;;5.30;3.50;;;7.10;99.90;;;;;;5008878;28;20029;-76
2023/01/19 13:13:30;;;;;;;6.38;4.03;;;7.00;99.90;;;;;;5009528;28;20090;-76
2023/01/19 13:16:16;;;;;;;6.97;3.78;;;7.00;99.90;;;;;;5017617;28;20444;-76
2023/01/19 13:19:02;;;;;;;6.05;3.90;;;7.10;99.90;;;;;;5014960;28;20026;-77
2023/01/19 13:21:28;;;;;;;8.48;3.90;;;7.10;99.90;;;;;;5016851;28;20448;-76
2023/01/19 13:23:57;;;;;;;6.93;4.50;;;7.10;99.90;;;;;;5018388;28;20034;-75